KELZ/ELZ METAR and TAF weather

Enter ICAO airport designator
Station Type Date Time Source
KELZ METAR 2019/08/24 19:56 UTC NOAA

KELZ 241956Z AUTO 03007KT 10SM FEW030 OVC048 16/11 A3029 RMK AO2 SLP259 T01610106 $


Station Type Date Time Source
KELZ Decoded METAR 2019/08/24 19:56 UTC NOAA

Station name not available
Aug 24, 2019 - 03:56 PM EDT / 2019.08.24 1956 UTC
Wind: from the NNE (030 degrees) at 8 MPH (7 KT):0
Visibility: 10 mile(s):0
Sky conditions: overcast
Temperature: 61.0 F (16.1 C)
Dew Point: 51.1 F (10.6 C)
Relative Humidity: 69%
Pressure (altimeter): 30.29 in. Hg (1025 hPa)
ob: KELZ 241956Z AUTO 03007KT 10SM FEW030 OVC048 16/11 A3029 RMK AO2 SLP259 T01610106
cycle: 20

Station Type Date Time Source
KELZ TAF UTC NOAA

Error!

Example: see airport list